createdAt,value
2022-09-04T00:00:15.032Z,16.78
2022-09-04T00:02:31.279Z,16.76
2022-09-04T00:04:43.132Z,16.77
2022-09-04T00:06:56.744Z,15.75
2022-09-04T00:09:12.939Z,16.78
2022-09-04T00:11:27.078Z,15.30
2022-09-04T00:13:34.539Z,16.77
2022-09-04T00:15:42.163Z,16.75
2022-09-04T00:17:51.223Z,16.74
2022-09-04T00:19:59.600Z,16.73
2022-09-04T00:22:05.929Z,16.65
2022-09-04T00:24:12.450Z,16.27
2022-09-04T00:26:24.636Z,16.61
2022-09-04T00:28:35.569Z,16.57
2022-09-04T00:30:50.346Z,16.56
2022-09-04T00:32:59.074Z,16.47
2022-09-04T00:35:11.869Z,16.43
2022-09-04T00:37:21.385Z,16.42
2022-09-04T00:39:34.472Z,16.37
2022-09-04T00:41:51.996Z,16.03
2022-09-04T00:44:35.660Z,16.19
2022-09-04T00:47:03.573Z,16.16
2022-09-04T00:49:20.195Z,16.13
2022-09-04T00:51:34.032Z,16.10
2022-09-04T00:53:55.416Z,16.04
2022-09-04T00:56:15.481Z,15.96
2022-09-04T00:58:33.242Z,15.45
2022-09-04T01:00:37.081Z,15.82
2022-09-04T01:03:19.808Z,15.77
2022-09-04T01:05:40.202Z,15.75
2022-09-04T01:07:56.176Z,15.73
2022-09-04T01:10:39.035Z,15.71
2022-09-04T01:12:50.850Z,15.67
2022-09-04T01:15:00.830Z,15.67
2022-09-04T01:17:14.413Z,15.69
2022-09-04T01:19:37.302Z,15.73
2022-09-04T01:22:01.510Z,13.71
2022-09-04T01:24:27.069Z,15.60
2022-09-04T01:26:41.549Z,15.49
2022-09-04T01:28:58.730Z,15.53
2022-09-04T01:31:07.753Z,15.26
2022-09-04T01:33:19.461Z,15.21
2022-09-04T01:35:31.818Z,15.12
2022-09-04T01:37:47.145Z,14.23
2022-09-04T01:40:00.554Z,15.24
2022-09-04T01:42:11.064Z,15.26
2022-09-04T01:44:14.954Z,14.82
2022-09-04T01:46:39.910Z,15.24
2022-09-04T01:48:51.287Z,14.92
2022-09-04T01:51:04.029Z,15.29
2022-09-04T01:53:12.627Z,15.29
2022-09-04T01:55:25.915Z,15.30
2022-09-04T01:57:42.040Z,15.39
2022-09-04T01:59:55.386Z,14.96
2022-09-04T02:02:03.408Z,15.35
2022-09-04T02:04:18.228Z,15.29
2022-09-04T02:06:33.005Z,15.25
2022-09-04T02:08:56.136Z,14.69
2022-09-04T02:11:04.864Z,15.42
2022-09-04T02:13:17.664Z,15.45
2022-09-04T02:15:34.080Z,15.43
2022-09-04T02:17:44.888Z,15.41
2022-09-04T02:20:01.058Z,15.36
2022-09-04T02:22:12.503Z,15.33
2022-09-04T02:24:26.846Z,15.34
2022-09-04T02:26:34.891Z,15.33
2022-09-04T02:28:48.891Z,15.27
2022-09-04T02:31:02.401Z,15.30
2022-09-04T02:33:13.211Z,15.26
2022-09-04T02:35:23.308Z,13.83
2022-09-04T02:37:32.606Z,15.25
2022-09-04T02:39:46.875Z,15.20
2022-09-04T02:42:00.627Z,14.52
2022-09-04T02:44:18.541Z,15.21
2022-09-04T02:46:29.077Z,15.22
2022-09-04T02:48:42.049Z,15.20
2022-09-04T02:51:00.116Z,15.16
2022-09-04T02:53:18.499Z,14.72
2022-09-04T02:55:35.906Z,14.97
2022-09-04T02:57:48.382Z,14.61
2022-09-04T03:00:00.029Z,14.85
2022-09-04T03:02:04.780Z,14.42
2022-09-04T03:04:16.409Z,14.75
2022-09-04T03:06:26.240Z,14.70
2022-09-04T03:08:37.440Z,14.83
2022-09-04T03:10:44.515Z,14.89
2022-09-04T03:12:52.389Z,14.88
2022-09-04T03:15:03.902Z,14.88
2022-09-04T03:17:14.232Z,14.90
2022-09-04T03:19:25.305Z,13.02
2022-09-04T03:21:35.144Z,14.91
2022-09-04T03:23:51.778Z,14.87
2022-09-04T03:26:05.632Z,14.79
2022-09-04T03:28:14.275Z,14.70
2022-09-04T03:30:19.516Z,14.70
2022-09-04T03:32:29.190Z,14.67
2022-09-04T03:34:43.046Z,14.28
2022-09-04T03:36:59.406Z,14.66
2022-09-04T03:39:10.343Z,14.59
2022-09-04T03:41:30.109Z,14.63
2022-09-04T03:43:47.503Z,14.67
2022-09-04T03:45:59.825Z,14.69
2022-09-04T03:48:15.784Z,14.69
2022-09-04T03:50:26.091Z,14.63
2022-09-04T03:52:35.529Z,14.63
2022-09-04T03:55:00.154Z,14.60
2022-09-04T03:57:32.328Z,14.51
2022-09-04T04:00:03.382Z,14.45
2022-09-04T04:02:26.909Z,14.38
2022-09-04T04:04:56.160Z,14.33
2022-09-04T04:07:09.072Z,14.29
2022-09-04T04:09:37.863Z,12.50
2022-09-04T04:11:54.125Z,13.95
2022-09-04T04:14:19.325Z,12.95
2022-09-04T04:16:40.623Z,14.05
2022-09-04T04:19:03.791Z,12.91
2022-09-04T04:21:16.695Z,14.08
2022-09-04T04:23:39.743Z,13.97
2022-09-04T04:26:08.628Z,13.58
2022-09-04T04:28:24.800Z,13.89
2022-09-04T04:30:31.394Z,13.49
2022-09-04T04:33:00.319Z,13.94
2022-09-04T04:35:13.130Z,12.52
2022-09-04T04:37:25.826Z,13.84
2022-09-04T04:39:40.602Z,4.54
2022-09-04T04:42:07.143Z,14.01
2022-09-04T04:44:16.582Z,14.01
2022-09-04T04:46:34.559Z,13.96
2022-09-04T04:49:05.260Z,12.96
2022-09-04T04:51:20.330Z,13.59
2022-09-04T04:53:31.646Z,13.49
2022-09-04T04:55:43.001Z,13.88
2022-09-04T04:57:56.103Z,13.90
2022-09-04T05:00:11.770Z,14.01
2022-09-04T05:02:22.344Z,14.13
2022-09-04T05:04:36.891Z,13.05
2022-09-04T05:06:46.464Z,14.21
2022-09-04T05:08:58.821Z,13.17
2022-09-04T05:11:09.461Z,11.61
2022-09-04T05:13:21.383Z,14.26
2022-09-04T05:15:35.995Z,14.26
2022-09-04T05:17:55.863Z,14.16
2022-09-04T05:20:25.118Z,11.15
2022-09-04T05:22:37.660Z,13.37
2022-09-04T05:24:50.150Z,14.12
2022-09-04T05:27:03.798Z,14.14
2022-09-04T05:29:14.635Z,14.22
2022-09-04T05:31:23.761Z,14.28
2022-09-04T05:33:36.940Z,14.32
2022-09-04T05:35:46.909Z,14.32
2022-09-04T05:37:57.680Z,13.34
2022-09-04T05:40:05.386Z,14.11
2022-09-04T05:42:38.094Z,14.39
2022-09-04T05:44:55.639Z,14.50
2022-09-04T05:47:09.904Z,13.59
2022-09-04T05:49:24.960Z,14.68
2022-09-04T05:51:45.052Z,14.64
2022-09-04T05:54:09.922Z,14.72
2022-09-04T05:56:41.242Z,12.59
2022-09-04T05:59:00.035Z,13.39
2022-09-04T06:01:15.250Z,15.11
2022-09-04T06:03:44.600Z,15.21
2022-09-04T06:06:12.266Z,14.93
2022-09-04T06:08:28.835Z,15.37
2022-09-04T06:10:45.862Z,13.53
2022-09-04T06:13:04.548Z,13.41
2022-09-04T06:15:34.134Z,15.16
2022-09-04T06:17:54.073Z,15.63
2022-09-04T06:20:23.947Z,15.78
2022-09-04T06:22:40.571Z,15.84
2022-09-04T06:25:02.895Z,15.91
2022-09-04T06:27:22.305Z,15.31
2022-09-04T06:29:41.306Z,15.48
2022-09-04T06:32:07.357Z,16.32
2022-09-04T06:34:22.470Z,16.45
2022-09-04T06:36:51.919Z,16.56
2022-09-04T06:39:20.356Z,16.64
2022-09-04T06:41:45.075Z,16.75
2022-09-04T06:44:00.100Z,16.85
2022-09-04T06:46:16.394Z,16.30
2022-09-04T06:48:29.975Z,17.10
2022-09-04T06:50:42.878Z,17.12
2022-09-04T06:52:55.835Z,17.19
2022-09-04T06:55:00.724Z,17.26
2022-09-04T06:57:20.327Z,17.34
2022-09-04T06:59:46.935Z,17.38
2022-09-04T07:02:02.376Z,17.47
2022-09-04T07:04:18.198Z,16.29
2022-09-04T07:06:31.136Z,17.70
2022-09-04T07:08:46.713Z,17.77
2022-09-04T07:10:59.758Z,17.88
2022-09-04T07:13:38.946Z,17.68
2022-09-04T07:15:53.176Z,17.82
2022-09-04T07:18:07.275Z,18.00
2022-09-04T07:20:22.056Z,17.11
2022-09-04T07:22:42.795Z,18.36
2022-09-04T07:24:59.600Z,18.54
2022-09-04T07:27:12.203Z,18.63
2022-09-04T07:29:32.642Z,18.74
2022-09-04T07:31:47.425Z,18.58
2022-09-04T07:33:59.427Z,18.73
2022-09-04T07:36:10.295Z,18.85
2022-09-04T07:38:22.669Z,18.91
2022-09-04T07:40:31.870Z,18.57
2022-09-04T07:42:45.772Z,18.94
2022-09-04T07:44:59.931Z,19.06
2022-09-04T07:47:14.268Z,18.40
2022-09-04T07:49:24.893Z,19.17
2022-09-04T07:51:35.266Z,19.23
2022-09-04T07:53:51.372Z,16.97
2022-09-04T07:56:01.663Z,19.31
2022-09-04T07:58:53.529Z,19.40
2022-09-04T08:01:14.202Z,18.38
2022-09-04T08:03:33.328Z,19.59
2022-09-04T08:05:41.142Z,19.04
2022-09-04T08:08:16.319Z,19.77
2022-09-04T08:10:30.397Z,19.81
2022-09-04T08:12:57.937Z,19.82
2022-09-04T08:15:13.435Z,19.84
2022-09-04T08:17:52.988Z,19.95
2022-09-04T08:20:06.075Z,20.05
2022-09-04T08:22:13.198Z,20.14
2022-09-04T08:24:55.008Z,20.23
2022-09-04T08:27:10.665Z,20.41
2022-09-04T08:29:33.351Z,20.49
2022-09-04T08:31:42.992Z,20.59
2022-09-04T08:34:07.527Z,19.73
2022-09-04T08:36:22.048Z,20.74
2022-09-04T08:38:45.816Z,20.70
2022-09-04T08:41:26.105Z,21.25
2022-09-04T08:43:39.948Z,19.67
2022-09-04T08:46:13.401Z,20.57
2022-09-04T08:49:11.636Z,21.72
2022-09-04T08:52:08.082Z,21.94
2022-09-04T08:54:57.750Z,22.11
2022-09-04T08:57:25.559Z,22.23
2022-09-04T09:00:03.038Z,22.39
2022-09-04T09:02:42.622Z,22.58
2022-09-04T09:05:20.388Z,22.48
2022-09-04T09:08:03.106Z,22.69
2022-09-04T09:10:49.924Z,22.76
2022-09-04T09:13:44.506Z,22.95
2022-09-04T09:16:15.396Z,23.15
2022-09-04T09:18:40.502Z,23.29
2022-09-04T09:20:53.288Z,23.51
2022-09-04T09:23:20.541Z,23.58
2022-09-04T09:25:27.615Z,23.70
2022-09-04T09:28:12.430Z,23.91
2022-09-04T09:30:18.950Z,24.05
2022-09-04T09:32:50.335Z,24.04
2022-09-04T09:35:30.078Z,24.15
2022-09-04T09:38:03.672Z,24.08
2022-09-04T09:40:43.883Z,24.26
2022-09-04T09:43:26.833Z,24.45
2022-09-04T09:45:55.666Z,24.76
2022-09-04T09:48:55.988Z,25.06
2022-09-04T09:51:37.743Z,25.31
2022-09-04T09:54:05.163Z,25.53
2022-09-04T09:57:04.481Z,25.23
2022-09-04T09:59:32.241Z,25.37
2022-09-04T10:01:57.838Z,25.78
2022-09-04T10:04:40.232Z,25.89
2022-09-04T10:07:05.550Z,26.14
2022-09-04T10:09:46.063Z,26.52
2022-09-04T10:12:18.738Z,26.41
2022-09-04T10:14:56.885Z,26.75
2022-09-04T10:17:34.919Z,26.90
2022-09-04T10:20:21.425Z,27.07
2022-09-04T10:23:04.360Z,25.99
2022-09-04T10:25:40.043Z,27.15
2022-09-04T10:28:00.903Z,27.41
2022-09-04T10:30:10.172Z,27.78
2022-09-04T10:32:35.501Z,28.04
2022-09-04T10:35:10.854Z,27.95
2022-09-04T10:37:34.089Z,27.97
2022-09-04T10:40:06.677Z,27.80
2022-09-04T10:42:19.868Z,28.11
2022-09-04T10:44:37.474Z,28.12
2022-09-04T10:46:52.447Z,28.52
2022-09-04T10:49:31.210Z,28.43
2022-09-04T10:52:17.198Z,28.80
2022-09-04T10:54:48.255Z,28.94
2022-09-04T10:56:59.998Z,29.07
2022-09-04T10:59:23.414Z,28.85
2022-09-04T11:02:14.198Z,29.37
2022-09-04T11:04:39.429Z,29.01
2022-09-04T11:07:10.494Z,29.49
2022-09-04T11:09:43.814Z,29.68
2022-09-04T11:12:09.537Z,30.05
2022-09-04T11:14:39.858Z,29.70
2022-09-04T11:17:18.471Z,29.86
2022-09-04T11:19:48.542Z,29.40
2022-09-04T11:22:34.943Z,29.79
2022-09-04T11:25:10.501Z,29.85
2022-09-04T11:27:49.232Z,30.59
2022-09-04T11:30:06.848Z,30.97
2022-09-04T11:32:38.264Z,31.30
2022-09-04T11:35:13.984Z,31.43
2022-09-04T11:37:44.492Z,31.49
2022-09-04T11:40:16.421Z,31.75
2022-09-04T11:42:33.442Z,31.91
2022-09-04T11:44:52.042Z,31.95
2022-09-04T11:47:28.567Z,29.75
2022-09-04T11:49:44.932Z,29.62
2022-09-04T11:52:26.416Z,30.83
2022-09-04T11:54:58.647Z,31.48
2022-09-04T11:57:08.721Z,31.90
2022-09-04T11:59:46.416Z,32.40
2022-09-04T12:02:15.363Z,30.86
2022-09-04T12:04:30.519Z,31.44
2022-09-04T12:06:51.216Z,31.20
2022-09-04T12:09:20.906Z,32.25
2022-09-04T12:11:42.029Z,32.15
2022-09-04T12:14:05.556Z,31.25
2022-09-04T12:16:27.787Z,28.31
2022-09-04T12:18:54.476Z,27.89
2022-09-04T12:21:25.393Z,27.76
2022-09-04T12:23:55.354Z,28.27
2022-09-04T12:26:27.543Z,27.60
2022-09-04T12:28:55.659Z,28.64
2022-09-04T12:31:15.845Z,27.57
2022-09-04T12:33:42.771Z,26.34
2022-09-04T12:36:24.340Z,27.26
2022-09-04T12:38:47.370Z,27.77
2022-09-04T12:40:59.800Z,27.61
2022-09-04T12:43:21.016Z,28.69
2022-09-04T12:45:31.524Z,27.67
2022-09-04T12:47:46.952Z,29.06
2022-09-04T12:50:16.052Z,29.16
2022-09-04T12:52:36.586Z,28.89
2022-09-04T12:54:44.192Z,28.77
2022-09-04T12:56:53.359Z,28.63
2022-09-04T12:59:27.917Z,28.78
2022-09-04T13:01:44.193Z,30.57
2022-09-04T13:03:58.757Z,30.53
2022-09-04T13:06:17.181Z,29.96
2022-09-04T13:08:31.418Z,28.49
2022-09-04T13:10:45.049Z,30.63
2022-09-04T13:12:58.146Z,30.88
2022-09-04T13:15:30.703Z,31.86
2022-09-04T13:17:48.453Z,31.91
2022-09-04T13:20:00.547Z,30.05
2022-09-04T13:22:16.910Z,32.75
2022-09-04T13:24:36.478Z,33.33
2022-09-04T13:26:56.532Z,33.63
2022-09-04T13:29:16.036Z,33.43
2022-09-04T13:31:35.453Z,33.86
2022-09-04T13:33:53.853Z,33.64
2022-09-04T13:36:16.625Z,34.35
2022-09-04T13:38:45.557Z,34.01
2022-09-04T13:41:12.616Z,34.70
2022-09-04T13:43:50.331Z,34.83
2022-09-04T13:45:55.977Z,34.57
2022-09-04T13:48:02.403Z,34.39
2022-09-04T13:50:14.129Z,34.77
2022-09-04T13:52:24.376Z,34.88
2022-09-04T13:54:34.901Z,35.28
2022-09-04T13:56:43.715Z,35.41
2022-09-04T13:58:51.498Z,34.69
2022-09-04T14:01:00.544Z,34.26
2022-09-04T14:03:10.325Z,33.01
2022-09-04T14:05:20.454Z,33.19
2022-09-04T14:07:31.705Z,33.07
2022-09-04T14:09:40.389Z,34.21
2022-09-04T14:12:18.608Z,33.99
2022-09-04T14:14:42.993Z,32.45
2022-09-04T14:16:46.205Z,32.68
2022-09-04T14:19:16.216Z,32.46
2022-09-04T14:21:30.782Z,32.32
2022-09-04T14:23:47.790Z,32.14
2022-09-04T14:25:55.371Z,31.53
2022-09-04T14:28:04.479Z,30.90
2022-09-04T14:30:10.465Z,30.62
2022-09-04T14:32:23.672Z,31.52
2022-09-04T14:34:37.580Z,31.32
2022-09-04T14:36:56.374Z,32.01
2022-09-04T14:39:14.722Z,31.84
2022-09-04T14:41:36.548Z,32.28
2022-09-04T14:43:49.502Z,32.52
2022-09-04T14:46:04.744Z,30.36
2022-09-04T14:48:11.417Z,29.39
2022-09-04T14:50:18.065Z,30.48
2022-09-04T14:52:28.075Z,31.83
2022-09-04T14:54:36.253Z,32.56
2022-09-04T14:56:45.842Z,30.93
2022-09-04T14:58:55.013Z,32.22
2022-09-04T15:01:04.504Z,28.78
2022-09-04T15:03:15.467Z,29.82
2022-09-04T15:05:23.230Z,30.64
2022-09-04T15:07:53.389Z,31.39
2022-09-04T15:10:10.691Z,32.86
2022-09-04T15:12:26.860Z,32.70
2022-09-04T15:14:34.849Z,32.93
2022-09-04T15:16:49.628Z,32.86
2022-09-04T15:18:59.018Z,31.43
2022-09-04T15:21:05.249Z,31.40
2022-09-04T15:23:20.709Z,32.51
2022-09-04T15:25:58.275Z,29.97
2022-09-04T15:28:09.905Z,32.24
2022-09-04T15:30:20.732Z,32.89
2022-09-04T15:32:26.677Z,32.20
2022-09-04T15:34:32.350Z,31.91
2022-09-04T15:36:37.774Z,32.72
2022-09-04T15:38:50.629Z,33.29
2022-09-04T15:41:16.650Z,33.82
2022-09-04T15:43:25.385Z,32.90
2022-09-04T15:45:36.096Z,32.94
2022-09-04T15:48:11.667Z,33.18
2022-09-04T15:50:20.741Z,33.41
2022-09-04T15:52:31.744Z,33.56
2022-09-04T15:54:55.773Z,34.19
2022-09-04T15:57:03.997Z,33.66
2022-09-04T15:59:15.973Z,34.59
2022-09-04T16:01:23.452Z,35.43
2022-09-04T16:03:32.377Z,34.23
2022-09-04T16:05:45.136Z,36.03
2022-09-04T16:08:03.730Z,36.23
2022-09-04T16:10:16.592Z,36.24
2022-09-04T16:12:25.353Z,36.72
2022-09-04T16:14:31.961Z,36.94
2022-09-04T16:16:42.485Z,36.88
2022-09-04T16:18:55.181Z,37.04
2022-09-04T16:21:01.106Z,37.42
2022-09-04T16:23:08.536Z,37.44
2022-09-04T16:25:27.263Z,37.48
2022-09-04T16:27:31.470Z,35.55
2022-09-04T16:29:38.058Z,36.11
2022-09-04T16:31:41.311Z,35.88
2022-09-04T16:33:50.178Z,36.91
2022-09-04T16:35:56.423Z,37.18
2022-09-04T16:38:06.932Z,37.01
2022-09-04T16:40:28.243Z,37.49
2022-09-04T16:42:39.990Z,37.66
2022-09-04T16:44:48.301Z,37.76
2022-09-04T16:47:02.930Z,37.28
2022-09-04T16:49:10.777Z,36.62
2022-09-04T16:51:40.319Z,37.16
2022-09-04T16:53:51.121Z,35.94
2022-09-04T16:56:02.324Z,36.05
2022-09-04T16:58:20.156Z,35.13
2022-09-04T17:00:51.762Z,35.99
2022-09-04T17:03:00.141Z,34.62
2022-09-04T17:05:17.706Z,36.11
2022-09-04T17:07:24.974Z,36.06
2022-09-04T17:09:35.448Z,36.08
2022-09-04T17:11:46.850Z,35.48
2022-09-04T17:14:08.363Z,35.02
2022-09-04T17:16:18.632Z,34.50
2022-09-04T17:18:23.533Z,35.60
2022-09-04T17:21:26.128Z,35.29
2022-09-04T17:28:55.908Z,34.94
2022-09-04T17:29:16.662Z,34.49
2022-09-04T17:29:19.231Z,34.46
2022-09-04T17:30:36.176Z,33.65
2022-09-04T17:38:09.080Z,33.85
2022-09-04T17:40:39.280Z,32.90
2022-09-04T17:40:48.576Z,31.83
2022-09-04T17:40:56.102Z,31.63
2022-09-04T17:43:19.123Z,30.73
2022-09-04T17:45:26.732Z,29.66
2022-09-04T17:47:33.966Z,28.88
2022-09-04T17:49:43.573Z,28.56
2022-09-04T17:51:54.053Z,27.08
2022-09-04T17:54:04.987Z,27.35
2022-09-04T17:56:15.012Z,27.26
2022-09-04T17:58:31.026Z,26.65
2022-09-04T18:00:53.643Z,25.84
2022-09-04T18:03:27.052Z,25.53
2022-09-04T18:05:36.393Z,23.73
2022-09-04T18:08:08.291Z,24.96
2022-09-04T18:10:23.797Z,24.52
2022-09-04T18:12:34.486Z,25.28
2022-09-04T18:14:42.728Z,24.44
2022-09-04T18:17:12.689Z,24.83
2022-09-04T18:19:22.163Z,24.98
2022-09-04T18:21:29.956Z,25.02
2022-09-04T18:23:52.034Z,24.61
2022-09-04T18:26:00.587Z,24.78
2022-09-04T18:28:12.982Z,24.79
2022-09-04T18:34:54.192Z,24.59
2022-09-04T18:37:08.298Z,24.69
2022-09-04T18:37:23.603Z,24.38
2022-09-04T18:37:50.359Z,24.54
2022-09-04T18:40:06.450Z,24.01
2022-09-04T18:50:20.738Z,23.22
2022-09-04T18:50:24.612Z,23.20
2022-09-04T18:50:34.463Z,22.95
2022-09-04T18:50:47.016Z,22.74
2022-09-04T18:52:23.422Z,22.13
2022-09-04T18:54:41.598Z,22.56
2022-09-04T18:56:47.770Z,22.85
2022-09-04T18:59:00.126Z,22.94
2022-09-04T19:01:26.840Z,22.95
2022-09-04T19:03:40.639Z,22.49
2022-09-04T19:05:47.729Z,22.48
2022-09-04T19:07:54.881Z,22.61
2022-09-04T19:10:17.456Z,22.55
2022-09-04T19:12:23.334Z,22.48
2022-09-04T19:14:34.189Z,22.37
2022-09-04T19:16:43.043Z,22.41
2022-09-04T19:18:51.674Z,22.59
2022-09-04T19:21:14.642Z,22.22
2022-09-04T19:23:26.978Z,22.51
2022-09-04T19:25:35.096Z,22.07
2022-09-04T19:27:40.746Z,21.26
2022-09-04T19:29:50.640Z,22.04
2022-09-04T19:32:00.687Z,21.05
2022-09-04T19:34:13.768Z,21.86
2022-09-04T19:36:30.895Z,21.85
2022-09-04T19:43:14.763Z,21.79
2022-09-04T19:46:05.052Z,20.30
2022-09-04T19:46:07.786Z,21.44
2022-09-04T19:46:29.495Z,18.92
2022-09-04T19:48:49.259Z,21.62
2022-09-04T19:53:32.969Z,21.34
2022-09-04T19:53:51.639Z,21.44
2022-09-04T19:55:59.975Z,20.04
2022-09-04T19:58:09.045Z,21.28
2022-09-04T20:00:38.358Z,20.91
2022-09-04T20:02:50.001Z,21.26
2022-09-04T20:04:57.860Z,21.22
2022-09-04T20:07:04.926Z,21.12
2022-09-04T20:09:16.790Z,21.33
2022-09-04T20:11:34.538Z,20.78
2022-09-04T20:13:44.156Z,21.25
2022-09-04T20:15:55.184Z,21.28
2022-09-04T20:18:08.442Z,21.28
2022-09-04T20:20:19.077Z,21.28
2022-09-04T20:22:31.252Z,21.24
2022-09-04T20:24:41.325Z,21.28
2022-09-04T20:26:49.852Z,21.23
2022-09-04T20:29:11.601Z,21.26
2022-09-04T20:31:36.602Z,21.33
2022-09-04T20:33:44.872Z,21.34
2022-09-04T20:35:53.433Z,18.31
2022-09-04T20:38:01.223Z,21.32
2022-09-04T20:40:17.986Z,21.33
2022-09-04T20:42:25.960Z,21.35
2022-09-04T20:44:57.879Z,21.32
2022-09-04T20:52:51.958Z,20.61
2022-09-04T20:52:54.573Z,21.26
2022-09-04T20:53:05.397Z,21.07
2022-09-04T20:54:51.778Z,21.10
2022-09-04T20:58:33.684Z,20.09
2022-09-04T21:03:13.782Z,20.69
2022-09-04T21:03:21.625Z,21.02
2022-09-04T21:04:47.438Z,21.03
2022-09-04T21:06:56.856Z,20.97
2022-09-04T21:09:13.951Z,20.92
2022-09-04T21:11:39.641Z,20.88
2022-09-04T21:13:48.667Z,20.79
2022-09-04T21:16:02.844Z,20.77
2022-09-04T21:18:18.946Z,20.71
2022-09-04T21:20:59.859Z,20.65
2022-09-04T21:23:32.156Z,20.46
2022-09-04T21:25:46.968Z,20.52
2022-09-04T21:28:17.997Z,20.50
2022-09-04T21:30:42.575Z,20.13
2022-09-04T21:33:04.143Z,19.79
2022-09-04T21:35:23.472Z,18.27
2022-09-04T21:37:32.761Z,19.25
2022-09-04T21:40:18.795Z,19.51
2022-09-04T21:42:55.976Z,19.78
2022-09-04T21:45:28.333Z,19.95
2022-09-04T21:48:04.917Z,19.99
2022-09-04T21:50:42.616Z,18.48
2022-09-04T21:52:59.685Z,20.01
2022-09-04T21:59:04.662Z,18.92
2022-09-04T22:02:41.531Z,20.09
2022-09-04T22:02:45.497Z,20.08
2022-09-04T22:03:31.546Z,19.91
2022-09-04T22:05:43.349Z,17.82
2022-09-04T22:10:27.516Z,19.49
2022-09-04T22:13:32.170Z,19.14
2022-09-04T22:13:42.341Z,19.25
2022-09-04T22:15:59.815Z,19.50
2022-09-04T22:18:31.905Z,19.58
2022-09-04T22:20:52.606Z,18.47
2022-09-04T22:23:33.503Z,19.56
2022-09-04T22:26:09.125Z,18.46
2022-09-04T22:28:49.327Z,19.59
2022-09-04T22:31:19.562Z,19.61
2022-09-04T22:34:15.369Z,19.18
2022-09-04T22:37:00.400Z,19.63
2022-09-04T22:39:30.993Z,19.52
2022-09-04T22:41:57.400Z,18.03
2022-09-04T22:44:11.997Z,18.03
2022-09-04T22:46:47.324Z,19.43
2022-09-04T22:49:25.892Z,19.27
2022-09-04T22:51:43.360Z,19.26
2022-09-04T22:54:21.657Z,19.23
2022-09-04T22:56:38.729Z,19.21
2022-09-04T22:59:07.659Z,19.18
2022-09-04T23:01:46.679Z,19.03
2022-09-04T23:04:07.034Z,18.67
2022-09-04T23:09:54.056Z,18.47
2022-09-04T23:13:45.086Z,19.04
2022-09-04T23:13:51.397Z,16.81
2022-09-04T23:14:41.581Z,18.74
2022-09-04T23:17:18.019Z,18.71
2022-09-04T23:26:46.442Z,18.20
2022-09-04T23:26:49.397Z,18.56
2022-09-04T23:27:29.589Z,18.37
2022-09-04T23:29:51.420Z,18.55
2022-09-04T23:32:13.595Z,18.36
2022-09-04T23:34:38.303Z,16.03
2022-09-04T23:37:02.777Z,18.37
2022-09-04T23:39:29.950Z,18.41
2022-09-04T23:41:52.913Z,18.34
2022-09-04T23:44:29.531Z,18.22
2022-09-04T23:46:45.457Z,18.09
2022-09-04T23:49:06.580Z,18.23
2022-09-04T23:51:24.311Z,17.62
2022-09-04T23:53:37.582Z,18.06
2022-09-04T23:55:57.716Z,16.23
2022-09-04T23:58:26.799Z,15.74
